sensor_id;sensor_type;location;lat;lon;timestamp;P1;durP1;ratioP1;P2;durP2;ratioP2
25525;SDS011;13424;48.424;11.258;2024-01-10T00:00:49;39.77;;;20.80;;
25525;SDS011;13424;48.424;11.258;2024-01-10T00:03:15;47.60;;;21.03;;
25525;SDS011;13424;48.424;11.258;2024-01-10T00:05:41;43.33;;;21.30;;
25525;SDS011;13424;48.424;11.258;2024-01-10T00:08:07;39.73;;;19.60;;
25525;SDS011;13424;48.424;11.258;2024-01-10T00:10:32;40.67;;;20.73;;
25525;SDS011;13424;48.424;11.258;2024-01-10T00:12:58;38.27;;;19.07;;
25525;SDS011;13424;48.424;11.258;2024-01-10T00:15:24;43.17;;;19.97;;
25525;SDS011;13424;48.424;11.258;2024-01-10T00:17:50;49.17;;;22.03;;
25525;SDS011;13424;48.424;11.258;2024-01-10T00:20:16;45.53;;;21.13;;
25525;SDS011;13424;48.424;11.258;2024-01-10T00:22:42;41.67;;;19.60;;
25525;SDS011;13424;48.424;11.258;2024-01-10T00:25:08;41.67;;;20.80;;
25525;SDS011;13424;48.424;11.258;2024-01-10T00:27:34;44.53;;;21.67;;
25525;SDS011;13424;48.424;11.258;2024-01-10T00:30:00;44.43;;;21.83;;
25525;SDS011;13424;48.424;11.258;2024-01-10T00:32:26;42.97;;;22.50;;
25525;SDS011;13424;48.424;11.258;2024-01-10T00:34:52;39.03;;;21.43;;
25525;SDS011;13424;48.424;11.258;2024-01-10T00:37:18;51.77;;;21.43;;
25525;SDS011;13424;48.424;11.258;2024-01-10T00:39:44;46.77;;;22.60;;
25525;SDS011;13424;48.424;11.258;2024-01-10T00:42:10;58.13;;;23.23;;
25525;SDS011;13424;48.424;11.258;2024-01-10T00:44:35;46.50;;;21.00;;
25525;SDS011;13424;48.424;11.258;2024-01-10T00:47:02;44.93;;;22.13;;
25525;SDS011;13424;48.424;11.258;2024-01-10T00:49:28;43.67;;;22.00;;
25525;SDS011;13424;48.424;11.258;2024-01-10T00:51:54;43.50;;;20.63;;
25525;SDS011;13424;48.424;11.258;2024-01-10T00:54:20;48.60;;;20.73;;
25525;SDS011;13424;48.424;11.258;2024-01-10T00:56:46;48.43;;;22.63;;
25525;SDS011;13424;48.424;11.258;2024-01-10T00:59:12;44.43;;;22.47;;
25525;SDS011;13424;48.424;11.258;2024-01-10T01:01:38;48.13;;;22.30;;
25525;SDS011;13424;48.424;11.258;2024-01-10T01:04:04;44.67;;;21.53;;
25525;SDS011;13424;48.424;11.258;2024-01-10T01:06:30;47.30;;;22.57;;
25525;SDS011;13424;48.424;11.258;2024-01-10T01:08:56;51.97;;;23.40;;
25525;SDS011;13424;48.424;11.258;2024-01-10T01:11:23;46.67;;;22.43;;
25525;SDS011;13424;48.424;11.258;2024-01-10T01:13:50;48.70;;;23.07;;
25525;SDS011;13424;48.424;11.258;2024-01-10T01:16:16;47.23;;;23.00;;
25525;SDS011;13424;48.424;11.258;2024-01-10T01:18:42;43.30;;;23.77;;
25525;SDS011;13424;48.424;11.258;2024-01-10T01:21:11;53.33;;;23.77;;
25525;SDS011;13424;48.424;11.258;2024-01-10T01:23:37;51.13;;;24.30;;
25525;SDS011;13424;48.424;11.258;2024-01-10T01:26:03;53.57;;;24.47;;
25525;SDS011;13424;48.424;11.258;2024-01-10T01:28:30;45.27;;;21.97;;
25525;SDS011;13424;48.424;11.258;2024-01-10T01:30:57;49.20;;;23.53;;
25525;SDS011;13424;48.424;11.258;2024-01-10T01:33:23;51.23;;;24.63;;
25525;SDS011;13424;48.424;11.258;2024-01-10T01:35:48;56.70;;;25.97;;
25525;SDS011;13424;48.424;11.258;2024-01-10T01:38:14;49.33;;;23.30;;
25525;SDS011;13424;48.424;11.258;2024-01-10T01:40:53;48.70;;;24.33;;
25525;SDS011;13424;48.424;11.258;2024-01-10T01:43:20;53.00;;;23.50;;
25525;SDS011;13424;48.424;11.258;2024-01-10T01:45:51;64.23;;;26.30;;
25525;SDS011;13424;48.424;11.258;2024-01-10T01:48:21;51.85;;;23.55;;
25525;SDS011;13424;48.424;11.258;2024-01-10T01:50:50;52.07;;;23.47;;
25525;SDS011;13424;48.424;11.258;2024-01-10T01:53:23;51.43;;;24.70;;
25525;SDS011;13424;48.424;11.258;2024-01-10T01:55:50;47.87;;;23.90;;
25525;SDS011;13424;48.424;11.258;2024-01-10T01:58:16;51.60;;;24.10;;
25525;SDS011;13424;48.424;11.258;2024-01-10T02:00:42;56.27;;;25.83;;
25525;SDS011;13424;48.424;11.258;2024-01-10T02:03:11;52.43;;;25.03;;
25525;SDS011;13424;48.424;11.258;2024-01-10T02:05:37;47.23;;;24.80;;
25525;SDS011;13424;48.424;11.258;2024-01-10T02:08:03;51.07;;;25.20;;
25525;SDS011;13424;48.424;11.258;2024-01-10T02:10:30;51.43;;;26.63;;
25525;SDS011;13424;48.424;11.258;2024-01-10T02:12:56;62.47;;;28.67;;
25525;SDS011;13424;48.424;11.258;2024-01-10T02:15:23;61.37;;;27.53;;
25525;SDS011;13424;48.424;11.258;2024-01-10T02:17:49;55.33;;;26.40;;
25525;SDS011;13424;48.424;11.258;2024-01-10T02:20:15;58.67;;;26.83;;
25525;SDS011;13424;48.424;11.258;2024-01-10T02:22:42;52.03;;;24.83;;
25525;SDS011;13424;48.424;11.258;2024-01-10T02:25:09;51.57;;;25.97;;
25525;SDS011;13424;48.424;11.258;2024-01-10T02:27:36;56.87;;;25.13;;
25525;SDS011;13424;48.424;11.258;2024-01-10T02:30:04;54.20;;;26.00;;
25525;SDS011;13424;48.424;11.258;2024-01-10T02:32:31;55.20;;;26.83;;
25525;SDS011;13424;48.424;11.258;2024-01-10T02:34:58;53.53;;;25.30;;
25525;SDS011;13424;48.424;11.258;2024-01-10T02:37:24;53.73;;;26.87;;
25525;SDS011;13424;48.424;11.258;2024-01-10T02:39:50;61.80;;;27.20;;
25525;SDS011;13424;48.424;11.258;2024-01-10T02:42:17;49.10;;;23.70;;
25525;SDS011;13424;48.424;11.258;2024-01-10T02:44:43;64.30;;;27.03;;
25525;SDS011;13424;48.424;11.258;2024-01-10T02:47:10;50.53;;;26.93;;
25525;SDS011;13424;48.424;11.258;2024-01-10T02:49:37;64.57;;;27.10;;
25525;SDS011;13424;48.424;11.258;2024-01-10T02:52:04;56.43;;;26.50;;
25525;SDS011;13424;48.424;11.258;2024-01-10T02:54:30;56.37;;;25.87;;
25525;SDS011;13424;48.424;11.258;2024-01-10T02:56:56;54.83;;;26.23;;
25525;SDS011;13424;48.424;11.258;2024-01-10T02:59:22;56.43;;;26.63;;
25525;SDS011;13424;48.424;11.258;2024-01-10T03:01:48;56.67;;;28.53;;
25525;SDS011;13424;48.424;11.258;2024-01-10T03:04:14;61.97;;;28.27;;
25525;SDS011;13424;48.424;11.258;2024-01-10T03:06:40;58.80;;;26.70;;
25525;SDS011;13424;48.424;11.258;2024-01-10T03:09:06;55.77;;;26.57;;
25525;SDS011;13424;48.424;11.258;2024-01-10T03:11:32;60.40;;;29.20;;
25525;SDS011;13424;48.424;11.258;2024-01-10T03:14:06;60.10;;;27.80;;
25525;SDS011;13424;48.424;11.258;2024-01-10T03:16:34;55.63;;;26.40;;
25525;SDS011;13424;48.424;11.258;2024-01-10T03:19:00;59.67;;;28.37;;
25525;SDS011;13424;48.424;11.258;2024-01-10T03:21:27;62.00;;;28.97;;
25525;SDS011;13424;48.424;11.258;2024-01-10T03:23:55;58.57;;;27.40;;
25525;SDS011;13424;48.424;11.258;2024-01-10T03:26:26;56.30;;;27.43;;
25525;SDS011;13424;48.424;11.258;2024-01-10T03:28:53;54.83;;;27.23;;
25525;SDS011;13424;48.424;11.258;2024-01-10T03:31:19;61.00;;;28.93;;
25525;SDS011;13424;48.424;11.258;2024-01-10T03:33:46;63.43;;;29.47;;
25525;SDS011;13424;48.424;11.258;2024-01-10T03:36:49;64.13;;;29.03;;
25525;SDS011;13424;48.424;11.258;2024-01-10T03:39:15;62.20;;;29.03;;
25525;SDS011;13424;48.424;11.258;2024-01-10T03:41:40;64.60;;;29.77;;
25525;SDS011;13424;48.424;11.258;2024-01-10T03:44:06;70.13;;;31.63;;
25525;SDS011;13424;48.424;11.258;2024-01-10T03:46:32;71.40;;;32.00;;
25525;SDS011;13424;48.424;11.258;2024-01-10T03:48:58;71.40;;;32.07;;
25525;SDS011;13424;48.424;11.258;2024-01-10T03:51:24;71.43;;;28.27;;
25525;SDS011;13424;48.424;11.258;2024-01-10T03:53:51;67.60;;;30.67;;
25525;SDS011;13424;48.424;11.258;2024-01-10T03:56:47;61.73;;;29.80;;
25525;SDS011;13424;48.424;11.258;2024-01-10T03:59:13;59.47;;;29.20;;
25525;SDS011;13424;48.424;11.258;2024-01-10T04:01:39;62.00;;;29.90;;
25525;SDS011;13424;48.424;11.258;2024-01-10T04:07:42;75.20;;;31.27;;
25525;SDS011;13424;48.424;11.258;2024-01-10T04:10:12;69.40;;;29.77;;
25525;SDS011;13424;48.424;11.258;2024-01-10T04:12:40;75.90;;;30.05;;
25525;SDS011;13424;48.424;11.258;2024-01-10T04:15:06;68.93;;;30.70;;
25525;SDS011;13424;48.424;11.258;2024-01-10T04:17:33;72.73;;;31.43;;
25525;SDS011;13424;48.424;11.258;2024-01-10T04:19:58;70.73;;;32.93;;
25525;SDS011;13424;48.424;11.258;2024-01-10T04:22:27;63.60;;;32.83;;
25525;SDS011;13424;48.424;11.258;2024-01-10T04:24:59;71.93;;;32.67;;
25525;SDS011;13424;48.424;11.258;2024-01-10T04:27:27;65.67;;;31.30;;
25525;SDS011;13424;48.424;11.258;2024-01-10T04:29:53;65.73;;;32.40;;
25525;SDS011;13424;48.424;11.258;2024-01-10T04:32:19;73.33;;;32.57;;
25525;SDS011;13424;48.424;11.258;2024-01-10T04:34:45;75.90;;;33.37;;
25525;SDS011;13424;48.424;11.258;2024-01-10T04:37:11;71.23;;;31.80;;
25525;SDS011;13424;48.424;11.258;2024-01-10T04:39:37;70.80;;;33.43;;
25525;SDS011;13424;48.424;11.258;2024-01-10T04:42:04;77.53;;;32.63;;
25525;SDS011;13424;48.424;11.258;2024-01-10T04:44:30;75.53;;;34.27;;
25525;SDS011;13424;48.424;11.258;2024-01-10T04:46:56;72.63;;;32.03;;
25525;SDS011;13424;48.424;11.258;2024-01-10T04:49:22;82.17;;;33.90;;
25525;SDS011;13424;48.424;11.258;2024-01-10T04:51:48;85.03;;;34.23;;
25525;SDS011;13424;48.424;11.258;2024-01-10T04:54:15;87.03;;;35.50;;
25525;SDS011;13424;48.424;11.258;2024-01-10T04:56:41;91.63;;;36.33;;
25525;SDS011;13424;48.424;11.258;2024-01-10T04:59:07;89.23;;;36.30;;
25525;SDS011;13424;48.424;11.258;2024-01-10T05:01:33;82.73;;;34.27;;
25525;SDS011;13424;48.424;11.258;2024-01-10T05:04:01;86.43;;;33.63;;
25525;SDS011;13424;48.424;11.258;2024-01-10T05:06:27;88.07;;;36.17;;
25525;SDS011;13424;48.424;11.258;2024-01-10T05:08:54;82.57;;;34.73;;
25525;SDS011;13424;48.424;11.258;2024-01-10T05:11:24;90.73;;;35.43;;
25525;SDS011;13424;48.424;11.258;2024-01-10T05:17:41;86.40;;;35.27;;
25525;SDS011;13424;48.424;11.258;2024-01-10T05:20:08;86.17;;;34.80;;
25525;SDS011;13424;48.424;11.258;2024-01-10T05:22:35;83.07;;;36.57;;
25525;SDS011;13424;48.424;11.258;2024-01-10T05:25:01;84.00;;;33.43;;
25525;SDS011;13424;48.424;11.258;2024-01-10T05:27:29;90.10;;;38.67;;
25525;SDS011;13424;48.424;11.258;2024-01-10T05:29:55;93.40;;;35.73;;
25525;SDS011;13424;48.424;11.258;2024-01-10T05:32:20;95.03;;;37.90;;
25525;SDS011;13424;48.424;11.258;2024-01-10T05:34:46;90.83;;;36.87;;
25525;SDS011;13424;48.424;11.258;2024-01-10T05:37:13;93.40;;;38.77;;
25525;SDS011;13424;48.424;11.258;2024-01-10T05:39:39;91.07;;;38.53;;
25525;SDS011;13424;48.424;11.258;2024-01-10T05:42:05;81.30;;;35.00;;
25525;SDS011;13424;48.424;11.258;2024-01-10T05:44:32;88.20;;;36.77;;
25525;SDS011;13424;48.424;11.258;2024-01-10T05:46:58;90.20;;;36.07;;
25525;SDS011;13424;48.424;11.258;2024-01-10T05:49:26;82.33;;;34.63;;
25525;SDS011;13424;48.424;11.258;2024-01-10T05:51:52;73.23;;;30.90;;
25525;SDS011;13424;48.424;11.258;2024-01-10T05:54:18;69.37;;;34.90;;
25525;SDS011;13424;48.424;11.258;2024-01-10T05:56:44;73.20;;;32.27;;
25525;SDS011;13424;48.424;11.258;2024-01-10T05:59:10;78.60;;;34.97;;
25525;SDS011;13424;48.424;11.258;2024-01-10T06:01:41;67.83;;;31.50;;
25525;SDS011;13424;48.424;11.258;2024-01-10T06:04:07;78.10;;;35.30;;
25525;SDS011;13424;48.424;11.258;2024-01-10T06:06:33;75.17;;;33.93;;
25525;SDS011;13424;48.424;11.258;2024-01-10T06:08:59;76.00;;;36.43;;
25525;SDS011;13424;48.424;11.258;2024-01-10T06:11:25;82.03;;;35.50;;
25525;SDS011;13424;48.424;11.258;2024-01-10T06:13:51;73.67;;;35.33;;
25525;SDS011;13424;48.424;11.258;2024-01-10T06:16:18;77.17;;;34.40;;
25525;SDS011;13424;48.424;11.258;2024-01-10T06:22:01;75.40;;;34.47;;
25525;SDS011;13424;48.424;11.258;2024-01-10T06:24:27;75.93;;;33.30;;
25525;SDS011;13424;48.424;11.258;2024-01-10T06:26:53;77.77;;;34.43;;
25525;SDS011;13424;48.424;11.258;2024-01-10T06:29:19;88.17;;;35.63;;
25525;SDS011;13424;48.424;11.258;2024-01-10T06:31:45;78.13;;;33.53;;
25525;SDS011;13424;48.424;11.258;2024-01-10T06:34:15;80.63;;;34.17;;
25525;SDS011;13424;48.424;11.258;2024-01-10T06:36:41;81.30;;;36.33;;
25525;SDS011;13424;48.424;11.258;2024-01-10T06:39:09;81.80;;;35.77;;
25525;SDS011;13424;48.424;11.258;2024-01-10T06:41:39;75.33;;;33.73;;
25525;SDS011;13424;48.424;11.258;2024-01-10T06:44:05;81.90;;;36.73;;
25525;SDS011;13424;48.424;11.258;2024-01-10T06:46:32;79.63;;;37.03;;
25525;SDS011;13424;48.424;11.258;2024-01-10T06:48:58;78.30;;;35.10;;
25525;SDS011;13424;48.424;11.258;2024-01-10T06:51:24;93.80;;;39.50;;
25525;SDS011;13424;48.424;11.258;2024-01-10T06:54:00;85.80;;;37.87;;
25525;SDS011;13424;48.424;11.258;2024-01-10T06:56:29;83.53;;;35.40;;
25525;SDS011;13424;48.424;11.258;2024-01-10T06:58:59;78.75;;;35.70;;
25525;SDS011;13424;48.424;11.258;2024-01-10T07:01:26;84.10;;;36.33;;
25525;SDS011;13424;48.424;11.258;2024-01-10T07:03:53;85.57;;;38.10;;
25525;SDS011;13424;48.424;11.258;2024-01-10T07:06:20;82.07;;;36.67;;
25525;SDS011;13424;48.424;11.258;2024-01-10T07:08:48;86.53;;;38.20;;
25525;SDS011;13424;48.424;11.258;2024-01-10T07:11:16;81.77;;;34.23;;
25525;SDS011;13424;48.424;11.258;2024-01-10T07:13:43;91.50;;;38.43;;
25525;SDS011;13424;48.424;11.258;2024-01-10T07:16:09;83.90;;;37.67;;
25525;SDS011;13424;48.424;11.258;2024-01-10T07:18:36;102.53;;;44.70;;
25525;SDS011;13424;48.424;11.258;2024-01-10T07:21:02;92.47;;;36.93;;
25525;SDS011;13424;48.424;11.258;2024-01-10T07:23:28;99.63;;;44.10;;
25525;SDS011;13424;48.424;11.258;2024-01-10T07:25:56;90.37;;;38.67;;
25525;SDS011;13424;48.424;11.258;2024-01-10T07:28:22;98.87;;;42.90;;
25525;SDS011;13424;48.424;11.258;2024-01-10T07:30:48;90.57;;;39.90;;
25525;SDS011;13424;48.424;11.258;2024-01-10T07:33:14;86.50;;;38.03;;
25525;SDS011;13424;48.424;11.258;2024-01-10T07:35:40;88.83;;;38.00;;
25525;SDS011;13424;48.424;11.258;2024-01-10T07:38:06;84.17;;;35.90;;
25525;SDS011;13424;48.424;11.258;2024-01-10T07:40:35;92.50;;;39.67;;
25525;SDS011;13424;48.424;11.258;2024-01-10T07:43:02;90.60;;;40.60;;
25525;SDS011;13424;48.424;11.258;2024-01-10T07:45:28;86.33;;;37.10;;
25525;SDS011;13424;48.424;11.258;2024-01-10T07:47:54;88.80;;;39.70;;
25525;SDS011;13424;48.424;11.258;2024-01-10T07:50:20;77.23;;;36.90;;
25525;SDS011;13424;48.424;11.258;2024-01-10T07:52:49;87.47;;;35.57;;
25525;SDS011;13424;48.424;11.258;2024-01-10T07:58:31;89.97;;;35.03;;
25525;SDS011;13424;48.424;11.258;2024-01-10T08:00:57;82.83;;;33.37;;
25525;SDS011;13424;48.424;11.258;2024-01-10T08:03:23;79.50;;;36.23;;
25525;SDS011;13424;48.424;11.258;2024-01-10T08:05:49;76.80;;;35.40;;
25525;SDS011;13424;48.424;11.258;2024-01-10T08:08:15;88.40;;;37.30;;
25525;SDS011;13424;48.424;11.258;2024-01-10T08:10:42;89.27;;;35.00;;
25525;SDS011;13424;48.424;11.258;2024-01-10T08:13:08;90.37;;;39.73;;
25525;SDS011;13424;48.424;11.258;2024-01-10T08:15:34;97.10;;;36.23;;
25525;SDS011;13424;48.424;11.258;2024-01-10T08:18:00;91.77;;;39.50;;
25525;SDS011;13424;48.424;11.258;2024-01-10T08:20:29;90.50;;;36.93;;
25525;SDS011;13424;48.424;11.258;2024-01-10T08:22:55;105.43;;;36.07;;
25525;SDS011;13424;48.424;11.258;2024-01-10T08:25:21;117.57;;;44.20;;
25525;SDS011;13424;48.424;11.258;2024-01-10T08:27:47;109.90;;;43.97;;
25525;SDS011;13424;48.424;11.258;2024-01-10T08:30:14;101.43;;;41.80;;
25525;SDS011;13424;48.424;11.258;2024-01-10T08:32:41;118.70;;;39.50;;
25525;SDS011;13424;48.424;11.258;2024-01-10T08:35:07;99.83;;;39.87;;
25525;SDS011;13424;48.424;11.258;2024-01-10T08:37:45;94.83;;;37.60;;
25525;SDS011;13424;48.424;11.258;2024-01-10T08:40:12;101.57;;;36.03;;
25525;SDS011;13424;48.424;11.258;2024-01-10T08:46:03;96.77;;;38.20;;
25525;SDS011;13424;48.424;11.258;2024-01-10T08:48:29;97.07;;;39.33;;
25525;SDS011;13424;48.424;11.258;2024-01-10T08:50:55;90.40;;;37.60;;
25525;SDS011;13424;48.424;11.258;2024-01-10T08:53:22;101.00;;;37.40;;
25525;SDS011;13424;48.424;11.258;2024-01-10T08:55:48;96.40;;;38.50;;
25525;SDS011;13424;48.424;11.258;2024-01-10T08:58:14;107.00;;;41.10;;
25525;SDS011;13424;48.424;11.258;2024-01-10T09:00:40;90.87;;;36.23;;
25525;SDS011;13424;48.424;11.258;2024-01-10T09:03:06;96.47;;;40.30;;
25525;SDS011;13424;48.424;11.258;2024-01-10T09:05:32;93.30;;;35.77;;
25525;SDS011;13424;48.424;11.258;2024-01-10T09:11:51;97.50;;;34.80;;
25525;SDS011;13424;48.424;11.258;2024-01-10T09:14:17;96.73;;;39.40;;
25525;SDS011;13424;48.424;11.258;2024-01-10T09:16:44;94.73;;;37.53;;
25525;SDS011;13424;48.424;11.258;2024-01-10T09:19:10;97.83;;;37.73;;
25525;SDS011;13424;48.424;11.258;2024-01-10T09:21:36;97.57;;;37.70;;
25525;SDS011;13424;48.424;11.258;2024-01-10T09:24:02;99.53;;;38.77;;
25525;SDS011;13424;48.424;11.258;2024-01-10T09:28:59;94.00;;;33.03;;
25525;SDS011;13424;48.424;11.258;2024-01-10T09:31:25;96.30;;;36.20;;
25525;SDS011;13424;48.424;11.258;2024-01-10T09:33:51;89.83;;;38.10;;
25525;SDS011;13424;48.424;11.258;2024-01-10T09:36:17;92.73;;;38.87;;
25525;SDS011;13424;48.424;11.258;2024-01-10T09:38:42;101.87;;;37.03;;
25525;SDS011;13424;48.424;11.258;2024-01-10T09:41:09;92.83;;;35.67;;
25525;SDS011;13424;48.424;11.258;2024-01-10T09:43:38;89.37;;;33.23;;
25525;SDS011;13424;48.424;11.258;2024-01-10T09:46:04;86.30;;;36.33;;
25525;SDS011;13424;48.424;11.258;2024-01-10T09:48:32;96.80;;;37.47;;
25525;SDS011;13424;48.424;11.258;2024-01-10T09:50:59;83.30;;;34.97;;
25525;SDS011;13424;48.424;11.258;2024-01-10T09:53:25;92.57;;;34.37;;
25525;SDS011;13424;48.424;11.258;2024-01-10T09:55:52;91.30;;;35.90;;
25525;SDS011;13424;48.424;11.258;2024-01-10T09:58:26;97.68;;;34.40;;
25525;SDS011;13424;48.424;11.258;2024-01-10T10:00:52;83.30;;;34.47;;
25525;SDS011;13424;48.424;11.258;2024-01-10T10:03:19;81.63;;;32.63;;
25525;SDS011;13424;48.424;11.258;2024-01-10T10:05:45;82.57;;;33.47;;
25525;SDS011;13424;48.424;11.258;2024-01-10T10:08:12;91.80;;;35.67;;
25525;SDS011;13424;48.424;11.258;2024-01-10T10:10:50;90.60;;;37.43;;
25525;SDS011;13424;48.424;11.258;2024-01-10T10:13:27;88.70;;;35.30;;
25525;SDS011;13424;48.424;11.258;2024-01-10T10:16:01;84.73;;;36.93;;
25525;SDS011;13424;48.424;11.258;2024-01-10T10:18:30;91.77;;;37.60;;
25525;SDS011;13424;48.424;11.258;2024-01-10T10:21:09;88.32;;;37.13;;
25525;SDS011;13424;48.424;11.258;2024-01-10T10:23:38;73.27;;;32.00;;
25525;SDS011;13424;48.424;11.258;2024-01-10T10:26:13;96.70;;;36.50;;
25525;SDS011;13424;48.424;11.258;2024-01-10T10:28:48;77.27;;;33.83;;
25525;SDS011;13424;48.424;11.258;2024-01-10T10:31:18;84.57;;;35.93;;
25525;SDS011;13424;48.424;11.258;2024-01-10T10:33:45;84.10;;;36.10;;
25525;SDS011;13424;48.424;11.258;2024-01-10T10:36:13;83.63;;;32.90;;
25525;SDS011;13424;48.424;11.258;2024-01-10T10:38:40;87.63;;;36.70;;
25525;SDS011;13424;48.424;11.258;2024-01-10T10:41:06;88.77;;;36.23;;
25525;SDS011;13424;48.424;11.258;2024-01-10T10:43:36;82.73;;;34.47;;
25525;SDS011;13424;48.424;11.258;2024-01-10T10:46:05;89.60;;;38.20;;
25525;SDS011;13424;48.424;11.258;2024-01-10T10:48:35;88.60;;;34.75;;
25525;SDS011;13424;48.424;11.258;2024-01-10T10:53:42;85.60;;;33.03;;
25525;SDS011;13424;48.424;11.258;2024-01-10T10:56:10;83.37;;;36.20;;
25525;SDS011;13424;48.424;11.258;2024-01-10T10:58:39;89.03;;;35.20;;
25525;SDS011;13424;48.424;11.258;2024-01-10T11:01:10;82.13;;;34.17;;
25525;SDS011;13424;48.424;11.258;2024-01-10T11:03:39;78.57;;;34.15;;
25525;SDS011;13424;48.424;11.258;2024-01-10T11:06:08;79.00;;;32.77;;
25525;SDS011;13424;48.424;11.258;2024-01-10T11:08:40;80.47;;;35.60;;
25525;SDS011;13424;48.424;11.258;2024-01-10T11:20:13;88.72;;;35.88;;
25525;SDS011;13424;48.424;11.258;2024-01-10T11:25:58;70.25;;;31.73;;
25525;SDS011;13424;48.424;11.258;2024-01-10T11:28:25;82.80;;;35.10;;
25525;SDS011;13424;48.424;11.258;2024-01-10T11:30:54;85.93;;;35.43;;
25525;SDS011;13424;48.424;11.258;2024-01-10T11:33:25;77.00;;;34.78;;
25525;SDS011;13424;48.424;11.258;2024-01-10T11:41:32;86.40;;;36.95;;
25525;SDS011;13424;48.424;11.258;2024-01-10T11:46:42;78.93;;;33.10;;
25525;SDS011;13424;48.424;11.258;2024-01-10T11:49:16;73.78;;;34.85;;
25525;SDS011;13424;48.424;11.258;2024-01-10T11:51:49;81.65;;;35.78;;
25525;SDS011;13424;48.424;11.258;2024-01-10T11:57:10;74.38;;;35.10;;
25525;SDS011;13424;48.424;11.258;2024-01-10T11:59:43;81.93;;;33.95;;
25525;SDS011;13424;48.424;11.258;2024-01-10T12:02:16;98.88;;;39.15;;
25525;SDS011;13424;48.424;11.258;2024-01-10T12:04:43;83.93;;;36.73;;
25525;SDS011;13424;48.424;11.258;2024-01-10T12:07:11;80.72;;;35.78;;
25525;SDS011;13424;48.424;11.258;2024-01-10T12:09:39;82.35;;;35.63;;
25525;SDS011;13424;48.424;11.258;2024-01-10T12:15:46;74.43;;;33.20;;
25525;SDS011;13424;48.424;11.258;2024-01-10T12:18:12;78.25;;;32.70;;
25525;SDS011;13424;48.424;11.258;2024-01-10T12:20:38;80.82;;;35.60;;
25525;SDS011;13424;48.424;11.258;2024-01-10T12:23:04;74.30;;;33.90;;
25525;SDS011;13424;48.424;11.258;2024-01-10T12:25:31;85.38;;;36.15;;
25525;SDS011;13424;48.424;11.258;2024-01-10T12:28:03;85.35;;;32.90;;
25525;SDS011;13424;48.424;11.258;2024-01-10T12:30:30;74.60;;;32.95;;
25525;SDS011;13424;48.424;11.258;2024-01-10T12:32:59;76.20;;;33.33;;
25525;SDS011;13424;48.424;11.258;2024-01-10T12:35:25;87.07;;;37.58;;
25525;SDS011;13424;48.424;11.258;2024-01-10T12:37:54;80.53;;;35.60;;
25525;SDS011;13424;48.424;11.258;2024-01-10T12:40:23;79.60;;;33.63;;
25525;SDS011;13424;48.424;11.258;2024-01-10T12:42:49;81.50;;;33.25;;
25525;SDS011;13424;48.424;11.258;2024-01-10T12:45:30;81.82;;;34.20;;
25525;SDS011;13424;48.424;11.258;2024-01-10T12:47:57;83.68;;;35.10;;
25525;SDS011;13424;48.424;11.258;2024-01-10T12:50:23;82.35;;;35.25;;
25525;SDS011;13424;48.424;11.258;2024-01-10T12:52:52;87.60;;;37.58;;
25525;SDS011;13424;48.424;11.258;2024-01-10T12:55:18;92.70;;;41.63;;
25525;SDS011;13424;48.424;11.258;2024-01-10T12:57:45;91.30;;;39.13;;
25525;SDS011;13424;48.424;11.258;2024-01-10T13:00:11;81.53;;;37.92;;
25525;SDS011;13424;48.424;11.258;2024-01-10T13:06:13;83.28;;;34.53;;
25525;SDS011;13424;48.424;11.258;2024-01-10T13:08:41;76.20;;;33.42;;
25525;SDS011;13424;48.424;11.258;2024-01-10T13:11:07;86.57;;;35.65;;
25525;SDS011;13424;48.424;11.258;2024-01-10T13:13:38;85.38;;;37.08;;
25525;SDS011;13424;48.424;11.258;2024-01-10T13:16:04;85.60;;;36.20;;
25525;SDS011;13424;48.424;11.258;2024-01-10T13:18:30;81.20;;;34.05;;
25525;SDS011;13424;48.424;11.258;2024-01-10T13:20:57;90.90;;;36.83;;
25525;SDS011;13424;48.424;11.258;2024-01-10T13:23:23;88.40;;;37.45;;
25525;SDS011;13424;48.424;11.258;2024-01-10T13:25:50;76.40;;;35.00;;
25525;SDS011;13424;48.424;11.258;2024-01-10T13:28:18;91.40;;;36.50;;
25525;SDS011;13424;48.424;11.258;2024-01-10T13:30:44;89.87;;;36.80;;
25525;SDS011;13424;48.424;11.258;2024-01-10T13:33:11;82.90;;;34.80;;
25525;SDS011;13424;48.424;11.258;2024-01-10T13:35:37;86.53;;;36.20;;
25525;SDS011;13424;48.424;11.258;2024-01-10T13:38:04;85.82;;;35.15;;
25525;SDS011;13424;48.424;11.258;2024-01-10T13:40:31;85.97;;;36.50;;
25525;SDS011;13424;48.424;11.258;2024-01-10T13:42:59;92.57;;;37.75;;
25525;SDS011;13424;48.424;11.258;2024-01-10T13:45:28;92.28;;;37.08;;
25525;SDS011;13424;48.424;11.258;2024-01-10T13:47:54;88.70;;;35.95;;
25525;SDS011;13424;48.424;11.258;2024-01-10T13:50:22;90.95;;;36.53;;
25525;SDS011;13424;48.424;11.258;2024-01-10T13:52:50;92.72;;;37.60;;
25525;SDS011;13424;48.424;11.258;2024-01-10T13:55:16;85.87;;;36.70;;
25525;SDS011;13424;48.424;11.258;2024-01-10T13:57:42;83.20;;;36.03;;
25525;SDS011;13424;48.424;11.258;2024-01-10T14:00:08;92.68;;;39.00;;
25525;SDS011;13424;48.424;11.258;2024-01-10T14:02:41;92.20;;;38.87;;
25525;SDS011;13424;48.424;11.258;2024-01-10T14:05:08;82.87;;;35.27;;
25525;SDS011;13424;48.424;11.258;2024-01-10T14:07:36;91.53;;;35.90;;
25525;SDS011;13424;48.424;11.258;2024-01-10T14:10:03;90.28;;;34.95;;
25525;SDS011;13424;48.424;11.258;2024-01-10T14:12:32;91.18;;;39.05;;
25525;SDS011;13424;48.424;11.258;2024-01-10T14:14:58;80.67;;;35.77;;
25525;SDS011;13424;48.424;11.258;2024-01-10T14:17:25;82.82;;;35.78;;
25525;SDS011;13424;48.424;11.258;2024-01-10T14:19:52;83.30;;;35.33;;
25525;SDS011;13424;48.424;11.258;2024-01-10T14:22:18;84.30;;;31.38;;
25525;SDS011;13424;48.424;11.258;2024-01-10T14:24:44;90.72;;;36.65;;
25525;SDS011;13424;48.424;11.258;2024-01-10T14:27:10;75.90;;;32.13;;
25525;SDS011;13424;48.424;11.258;2024-01-10T14:29:36;84.27;;;36.30;;
25525;SDS011;13424;48.424;11.258;2024-01-10T14:32:02;96.53;;;37.90;;
25525;SDS011;13424;48.424;11.258;2024-01-10T14:34:29;82.17;;;36.63;;
25525;SDS011;13424;48.424;11.258;2024-01-10T14:40:28;85.27;;;36.63;;
25525;SDS011;13424;48.424;11.258;2024-01-10T14:42:54;88.13;;;35.80;;
25525;SDS011;13424;48.424;11.258;2024-01-10T14:45:20;88.83;;;35.10;;
25525;SDS011;13424;48.424;11.258;2024-01-10T14:47:47;83.90;;;35.20;;
25525;SDS011;13424;48.424;11.258;2024-01-10T14:50:15;89.20;;;35.33;;
25525;SDS011;13424;48.424;11.258;2024-01-10T14:52:41;90.20;;;38.07;;
25525;SDS011;13424;48.424;11.258;2024-01-10T14:55:08;83.37;;;34.17;;
25525;SDS011;13424;48.424;11.258;2024-01-10T15:01:30;91.47;;;36.37;;
25525;SDS011;13424;48.424;11.258;2024-01-10T15:03:56;81.87;;;33.57;;
25525;SDS011;13424;48.424;11.258;2024-01-10T15:06:35;77.03;;;33.60;;
25525;SDS011;13424;48.424;11.258;2024-01-10T15:09:01;78.80;;;32.20;;
25525;SDS011;13424;48.424;11.258;2024-01-10T15:11:28;84.53;;;35.37;;
25525;SDS011;13424;48.424;11.258;2024-01-10T15:13:54;92.83;;;35.10;;